createdAt,value
2023-08-04T00:01:16.174Z,97239.50
2023-08-04T00:11:18.990Z,97249.25
2023-08-04T00:21:21.201Z,97239.78
2023-08-04T00:31:23.771Z,97240.81
2023-08-04T00:41:25.967Z,97239.28
2023-08-04T00:51:28.435Z,97252.78
2023-08-04T01:01:30.819Z,97251.09
2023-08-04T01:11:41.654Z,97250.47
2023-08-04T01:21:44.849Z,97257.81
2023-08-04T01:31:47.982Z,97252.19
2023-08-04T01:41:50.470Z,97266.38
2023-08-04T01:51:52.722Z,97258.00
2023-08-04T02:01:54.975Z,97260.13
2023-08-04T02:11:57.408Z,97259.59
2023-08-04T02:22:00.125Z,97264.50
2023-08-04T02:32:02.435Z,97253.00
2023-08-04T02:42:04.788Z,97252.72
2023-08-04T02:52:07.655Z,97248.87
2023-08-04T03:02:10.080Z,97250.41
2023-08-04T03:12:12.898Z,97253.12
2023-08-04T03:22:15.727Z,97254.56
2023-08-04T03:32:18.615Z,97268.62
2023-08-04T03:42:21.051Z,97261.97
2023-08-04T03:52:24.749Z,97272.75
2023-08-04T04:02:27.800Z,97266.31
2023-08-04T04:12:30.698Z,97271.47
2023-08-04T04:22:36.042Z,97274.09
2023-08-04T04:32:38.982Z,97275.69
2023-08-04T04:42:42.386Z,97280.34
2023-08-04T04:52:45.419Z,97283.34
2023-08-04T05:02:48.582Z,97292.38
2023-08-04T05:12:52.303Z,97298.22
2023-08-04T05:22:55.856Z,97301.50
2023-08-04T05:33:02.256Z,97299.03
2023-08-04T05:43:06.187Z,97298.84
2023-08-04T05:53:09.124Z,97305.00
2023-08-04T06:03:11.891Z,97316.25
2023-08-04T06:13:14.771Z,97323.44
2023-08-04T06:23:17.288Z,97329.66
2023-08-04T06:33:19.992Z,97324.91
2023-08-04T06:43:22.835Z,97326.97
2023-08-04T06:53:25.405Z,97346.16
2023-08-04T07:03:28.496Z,97347.66
2023-08-04T07:13:31.569Z,97349.09
2023-08-04T07:23:42.572Z,97347.19
2023-08-04T07:33:47.827Z,97359.03
2023-08-04T07:43:53.575Z,97357.72
2023-08-04T07:54:01.463Z,97364.06
2023-08-04T08:04:05.607Z,97368.69
2023-08-04T08:14:08.290Z,97360.47
2023-08-04T08:24:11.474Z,97363.00
2023-08-04T08:34:14.154Z,97363.75
2023-08-04T08:44:16.976Z,97369.69
2023-08-04T08:54:20.488Z,97374.75
2023-08-04T09:04:25.185Z,97367.00
2023-08-04T09:14:28.748Z,97375.06
2023-08-04T09:24:31.876Z,97368.00
2023-08-04T09:34:35.418Z,97378.28
2023-08-04T09:44:38.928Z,97376.78
2023-08-04T09:54:41.969Z,97377.28
2023-08-04T10:04:57.836Z,97375.47
2023-08-04T10:15:01.581Z,97381.31
2023-08-04T10:25:19.176Z,97379.31
2023-08-04T10:35:24.009Z,97383.56
2023-08-04T10:45:53.028Z,97378.22
2023-08-04T10:55:59.098Z,97382.72
2023-08-04T11:06:02.833Z,97377.91
2023-08-04T11:16:06.210Z,97374.72
2023-08-04T11:26:09.924Z,97384.28
2023-08-04T11:36:14.602Z,97385.41
2023-08-04T11:46:24.425Z,97384.13
2023-08-04T11:56:41.514Z,97385.34
2023-08-04T12:06:44.929Z,97382.75
2023-08-04T12:16:57.957Z,97394.75
2023-08-04T12:27:01.108Z,97399.09
2023-08-04T12:37:03.982Z,97413.59
2023-08-04T12:47:12.597Z,97427.09
2023-08-04T12:57:15.836Z,97429.84
2023-08-04T13:07:19.398Z,97432.03
2023-08-04T13:17:22.395Z,97444.59
2023-08-04T13:27:25.684Z,97433.16
2023-08-04T13:37:29.341Z,97430.41
2023-08-04T13:47:32.468Z,97444.38
2023-08-04T13:57:40.952Z,97453.34
2023-08-04T14:07:45.359Z,97454.00
2023-08-04T14:17:48.537Z,97463.25
2023-08-04T14:27:52.019Z,97449.88
2023-08-04T14:37:55.458Z,97466.47
2023-08-04T14:47:59.316Z,97464.66
2023-08-04T14:58:02.612Z,97487.41
2023-08-04T15:08:05.849Z,97504.62
2023-08-04T15:18:09.588Z,97518.25
2023-08-04T15:28:15.373Z,97540.13
2023-08-04T15:38:18.446Z,97538.53
2023-08-04T15:48:21.295Z,97554.44
2023-08-04T15:58:26.213Z,97572.94
2023-08-04T16:08:31.414Z,97582.47
2023-08-04T16:18:36.709Z,97584.75
2023-08-04T16:28:40.163Z,97591.00
2023-08-04T16:38:43.801Z,97602.59
2023-08-04T16:48:48.204Z,97608.91
2023-08-04T16:58:52.001Z,97615.78
2023-08-04T17:08:56.773Z,97628.66
2023-08-04T17:19:00.554Z,97632.22
2023-08-04T17:29:06.037Z,97629.81
2023-08-04T17:39:11.032Z,97629.78
2023-08-04T17:49:14.371Z,97642.59
2023-08-04T17:59:17.251Z,97645.91
2023-08-04T18:09:20.062Z,97653.56
2023-08-04T18:19:22.982Z,97673.03
2023-08-04T18:29:25.939Z,97694.84
2023-08-04T18:39:28.549Z,97704.44
2023-08-04T18:49:31.329Z,97715.50
2023-08-04T18:59:34.144Z,97720.34
2023-08-04T19:09:37.233Z,97715.16
2023-08-04T19:19:40.166Z,97718.56
2023-08-04T19:29:43.079Z,97734.34
2023-08-04T19:39:45.921Z,97726.44
2023-08-04T19:49:48.816Z,97744.06
2023-08-04T19:59:51.625Z,97731.13
2023-08-04T20:09:54.715Z,97747.91
2023-08-04T20:19:57.506Z,97747.53
2023-08-04T20:30:00.413Z,97752.75
2023-08-04T20:40:03.234Z,97772.78
2023-08-04T20:50:06.849Z,97792.28
2023-08-04T21:00:10.061Z,97796.19
2023-08-04T21:10:13.161Z,97813.69
2023-08-04T21:20:19.908Z,97827.31
2023-08-04T21:30:23.486Z,97844.69
2023-08-04T21:40:26.175Z,97863.66
2023-08-04T21:50:33.176Z,97868.09
2023-08-04T22:00:36.231Z,97876.91
2023-08-04T22:10:38.848Z,97860.63
2023-08-04T22:20:41.543Z,97841.41
2023-08-04T22:30:44.269Z,97829.25
2023-08-04T22:40:47.060Z,97815.28
2023-08-04T22:50:49.801Z,97803.38
2023-08-04T23:00:54.052Z,97803.97
2023-08-04T23:10:59.013Z,97822.56
2023-08-04T23:21:01.676Z,97794.28
2023-08-04T23:31:04.487Z,97779.56
2023-08-04T23:41:07.146Z,97787.09
2023-08-04T23:51:10.554Z,97779.59
